sensor_id;sensor_type;location;lat;lon;timestamp;P1;durP1;ratioP1;P2;durP2;ratioP2
22935;SDS011;11633;42.716;23.312;2022-11-11T00:02:15;43.25;;;23.23;;
22935;SDS011;11633;42.716;23.312;2022-11-11T00:04:40;41.53;;;23.92;;
22935;SDS011;11633;42.716;23.312;2022-11-11T00:07:05;42.40;;;24.13;;
22935;SDS011;11633;42.716;23.312;2022-11-11T00:09:31;51.17;;;23.50;;
22935;SDS011;11633;42.716;23.312;2022-11-11T00:11:56;42.70;;;22.55;;
22935;SDS011;11633;42.716;23.312;2022-11-11T00:14:22;38.55;;;22.33;;
22935;SDS011;11633;42.716;23.312;2022-11-11T00:16:47;41.85;;;25.13;;
22935;SDS011;11633;42.716;23.312;2022-11-11T00:19:30;39.50;;;23.25;;
22935;SDS011;11633;42.716;23.312;2022-11-11T00:22:21;41.08;;;24.40;;
22935;SDS011;11633;42.716;23.312;2022-11-11T00:25:05;42.63;;;25.90;;
22935;SDS011;11633;42.716;23.312;2022-11-11T00:27:30;45.10;;;25.77;;
22935;SDS011;11633;42.716;23.312;2022-11-11T00:29:56;42.47;;;27.20;;
22935;SDS011;11633;42.716;23.312;2022-11-11T00:32:21;40.95;;;24.25;;
22935;SDS011;11633;42.716;23.312;2022-11-11T00:34:55;45.30;;;28.73;;
22935;SDS011;11633;42.716;23.312;2022-11-11T00:37:40;41.92;;;26.30;;
22935;SDS011;11633;42.716;23.312;2022-11-11T00:40:05;47.72;;;28.25;;
22935;SDS011;11633;42.716;23.312;2022-11-11T00:42:31;45.70;;;26.90;;
22935;SDS011;11633;42.716;23.312;2022-11-11T00:44:56;46.72;;;27.75;;
22935;SDS011;11633;42.716;23.312;2022-11-11T00:47:21;39.00;;;22.75;;
22935;SDS011;11633;42.716;23.312;2022-11-11T00:50:06;30.92;;;19.70;;
22935;SDS011;11633;42.716;23.312;2022-11-11T00:52:50;32.22;;;19.08;;
22935;SDS011;11633;42.716;23.312;2022-11-11T00:55:15;43.90;;;26.05;;
22935;SDS011;11633;42.716;23.312;2022-11-11T00:57:40;46.17;;;25.67;;
22935;SDS011;11633;42.716;23.312;2022-11-11T01:00:06;47.63;;;26.35;;
22935;SDS011;11633;42.716;23.312;2022-11-11T01:02:31;42.85;;;25.67;;
22935;SDS011;11633;42.716;23.312;2022-11-11T01:04:56;41.17;;;25.15;;
22935;SDS011;11633;42.716;23.312;2022-11-11T01:07:22;42.13;;;24.58;;
22935;SDS011;11633;42.716;23.312;2022-11-11T01:09:47;45.53;;;26.90;;
22935;SDS011;11633;42.716;23.312;2022-11-11T01:12:12;42.45;;;24.63;;
22935;SDS011;11633;42.716;23.312;2022-11-11T01:14:38;39.65;;;23.13;;
22935;SDS011;11633;42.716;23.312;2022-11-11T01:17:03;40.10;;;25.27;;
22935;SDS011;11633;42.716;23.312;2022-11-11T01:19:30;35.78;;;23.00;;
22935;SDS011;11633;42.716;23.312;2022-11-11T01:21:55;42.40;;;23.55;;
22935;SDS011;11633;42.716;23.312;2022-11-11T01:24:20;41.63;;;24.67;;
22935;SDS011;11633;42.716;23.312;2022-11-11T01:26:46;44.80;;;25.63;;
22935;SDS011;11633;42.716;23.312;2022-11-11T01:29:11;41.92;;;24.52;;
22935;SDS011;11633;42.716;23.312;2022-11-11T01:31:36;38.60;;;23.23;;
22935;SDS011;11633;42.716;23.312;2022-11-11T01:34:01;39.30;;;24.42;;
22935;SDS011;11633;42.716;23.312;2022-11-11T01:36:27;45.08;;;24.67;;
22935;SDS011;11633;42.716;23.312;2022-11-11T01:38:56;48.70;;;24.40;;
22935;SDS011;11633;42.716;23.312;2022-11-11T01:41:23;50.25;;;26.15;;
22935;SDS011;11633;42.716;23.312;2022-11-11T01:43:58;46.08;;;26.83;;
22935;SDS011;11633;42.716;23.312;2022-11-11T01:46:34;44.10;;;25.15;;
22935;SDS011;11633;42.716;23.312;2022-11-11T01:49:14;34.25;;;20.98;;
22935;SDS011;11633;42.716;23.312;2022-11-11T01:51:58;34.92;;;19.65;;
22935;SDS011;11633;42.716;23.312;2022-11-11T01:54:29;37.60;;;22.17;;
22935;SDS011;11633;42.716;23.312;2022-11-11T01:56:58;36.25;;;19.00;;
22935;SDS011;11633;42.716;23.312;2022-11-11T01:59:24;37.38;;;20.55;;
22935;SDS011;11633;42.716;23.312;2022-11-11T02:01:50;40.65;;;23.63;;
22935;SDS011;11633;42.716;23.312;2022-11-11T02:04:16;45.15;;;23.45;;
22935;SDS011;11633;42.716;23.312;2022-11-11T02:07:02;43.67;;;21.67;;
22935;SDS011;11633;42.716;23.312;2022-11-11T02:09:28;36.47;;;21.38;;
22935;SDS011;11633;42.716;23.312;2022-11-11T02:11:54;48.97;;;25.05;;
22935;SDS011;11633;42.716;23.312;2022-11-11T02:14:50;38.50;;;22.98;;
22935;SDS011;11633;42.716;23.312;2022-11-11T02:17:16;41.65;;;24.67;;
22935;SDS011;11633;42.716;23.312;2022-11-11T02:19:58;46.35;;;26.08;;
22935;SDS011;11633;42.716;23.312;2022-11-11T02:22:32;46.30;;;25.10;;
22935;SDS011;11633;42.716;23.312;2022-11-11T02:25:00;48.00;;;26.92;;
22935;SDS011;11633;42.716;23.312;2022-11-11T02:27:27;53.80;;;26.60;;
22935;SDS011;11633;42.716;23.312;2022-11-11T02:29:54;40.30;;;21.80;;
22935;SDS011;11633;42.716;23.312;2022-11-11T02:32:20;45.80;;;25.70;;
22935;SDS011;11633;42.716;23.312;2022-11-11T02:34:45;43.95;;;21.65;;
22935;SDS011;11633;42.716;23.312;2022-11-11T02:37:11;48.80;;;24.15;;
22935;SDS011;11633;42.716;23.312;2022-11-11T02:39:37;42.95;;;22.52;;
22935;SDS011;11633;42.716;23.312;2022-11-11T02:42:04;37.28;;;22.00;;
22935;SDS011;11633;42.716;23.312;2022-11-11T02:44:34;41.60;;;22.40;;
22935;SDS011;11633;42.716;23.312;2022-11-11T02:47:00;43.83;;;21.42;;
22935;SDS011;11633;42.716;23.312;2022-11-11T02:49:25;38.47;;;20.40;;
22935;SDS011;11633;42.716;23.312;2022-11-11T02:51:50;38.17;;;21.77;;
22935;SDS011;11633;42.716;23.312;2022-11-11T02:54:15;36.28;;;21.30;;
22935;SDS011;11633;42.716;23.312;2022-11-11T02:56:40;38.38;;;20.45;;
22935;SDS011;11633;42.716;23.312;2022-11-11T02:59:24;40.00;;;20.85;;
22935;SDS011;11633;42.716;23.312;2022-11-11T03:01:50;34.80;;;19.65;;
22935;SDS011;11633;42.716;23.312;2022-11-11T03:04:15;36.20;;;20.25;;
22935;SDS011;11633;42.716;23.312;2022-11-11T03:06:40;37.90;;;20.50;;
22935;SDS011;11633;42.716;23.312;2022-11-11T03:09:05;38.08;;;21.58;;
22935;SDS011;11633;42.716;23.312;2022-11-11T03:11:31;39.33;;;21.17;;
22935;SDS011;11633;42.716;23.312;2022-11-11T03:13:58;42.38;;;22.42;;
22935;SDS011;11633;42.716;23.312;2022-11-11T03:16:23;40.42;;;21.80;;
22935;SDS011;11633;42.716;23.312;2022-11-11T03:19:07;43.72;;;22.75;;
22935;SDS011;11633;42.716;23.312;2022-11-11T03:21:32;36.85;;;22.02;;
22935;SDS011;11633;42.716;23.312;2022-11-11T03:23:58;40.78;;;22.00;;
22935;SDS011;11633;42.716;23.312;2022-11-11T03:26:23;41.10;;;21.85;;
22935;SDS011;11633;42.716;23.312;2022-11-11T03:28:48;46.08;;;23.00;;
22935;SDS011;11633;42.716;23.312;2022-11-11T03:31:14;39.80;;;21.95;;
22935;SDS011;11633;42.716;23.312;2022-11-11T03:33:39;42.70;;;21.92;;
22935;SDS011;11633;42.716;23.312;2022-11-11T03:36:05;41.80;;;22.02;;
22935;SDS011;11633;42.716;23.312;2022-11-11T03:38:30;38.88;;;23.20;;
22935;SDS011;11633;42.716;23.312;2022-11-11T03:40:55;43.20;;;23.63;;
22935;SDS011;11633;42.716;23.312;2022-11-11T03:43:22;45.83;;;24.17;;
22935;SDS011;11633;42.716;23.312;2022-11-11T03:45:48;43.42;;;23.85;;
22935;SDS011;11633;42.716;23.312;2022-11-11T03:48:13;40.50;;;23.90;;
22935;SDS011;11633;42.716;23.312;2022-11-11T03:50:39;45.78;;;24.60;;
22935;SDS011;11633;42.716;23.312;2022-11-11T03:53:05;44.78;;;23.38;;
22935;SDS011;11633;42.716;23.312;2022-11-11T03:55:31;40.75;;;22.48;;
22935;SDS011;11633;42.716;23.312;2022-11-11T03:57:56;42.75;;;22.95;;
22935;SDS011;11633;42.716;23.312;2022-11-11T04:00:26;40.92;;;22.27;;
22935;SDS011;11633;42.716;23.312;2022-11-11T04:02:55;42.53;;;24.25;;
22935;SDS011;11633;42.716;23.312;2022-11-11T04:05:43;35.97;;;22.85;;
22935;SDS011;11633;42.716;23.312;2022-11-11T04:08:27;42.28;;;23.45;;
22935;SDS011;11633;42.716;23.312;2022-11-11T04:11:12;39.83;;;22.80;;
22935;SDS011;11633;42.716;23.312;2022-11-11T04:13:38;43.17;;;24.00;;
22935;SDS011;11633;42.716;23.312;2022-11-11T04:16:23;39.70;;;23.30;;
22935;SDS011;11633;42.716;23.312;2022-11-11T04:18:48;43.80;;;23.58;;
22935;SDS011;11633;42.716;23.312;2022-11-11T04:21:32;36.65;;;22.05;;
22935;SDS011;11633;42.716;23.312;2022-11-11T04:26:56;40.13;;;23.90;;
22935;SDS011;11633;42.716;23.312;2022-11-11T04:29:22;36.60;;;22.23;;
22935;SDS011;11633;42.716;23.312;2022-11-11T04:31:57;39.10;;;22.20;;
22935;SDS011;11633;42.716;23.312;2022-11-11T04:34:42;36.20;;;22.52;;
22935;SDS011;11633;42.716;23.312;2022-11-11T04:37:07;34.38;;;21.08;;
22935;SDS011;11633;42.716;23.312;2022-11-11T04:39:33;38.40;;;22.52;;
22935;SDS011;11633;42.716;23.312;2022-11-11T04:42:17;37.03;;;20.75;;
22935;SDS011;11633;42.716;23.312;2022-11-11T04:44:42;39.13;;;22.08;;
22935;SDS011;11633;42.716;23.312;2022-11-11T04:47:26;32.63;;;20.33;;
22935;SDS011;11633;42.716;23.312;2022-11-11T04:49:51;35.70;;;22.00;;
22935;SDS011;11633;42.716;23.312;2022-11-11T04:52:16;36.78;;;22.70;;
22935;SDS011;11633;42.716;23.312;2022-11-11T04:54:51;33.70;;;21.80;;
22935;SDS011;11633;42.716;23.312;2022-11-11T04:57:38;29.15;;;18.05;;
22935;SDS011;11633;42.716;23.312;2022-11-11T05:00:04;36.90;;;18.13;;
22935;SDS011;11633;42.716;23.312;2022-11-11T05:02:30;31.65;;;18.52;;
22935;SDS011;11633;42.716;23.312;2022-11-11T05:05:14;33.95;;;19.00;;
22935;SDS011;11633;42.716;23.312;2022-11-11T05:07:39;34.45;;;18.70;;
22935;SDS011;11633;42.716;23.312;2022-11-11T05:10:23;31.45;;;19.65;;
22935;SDS011;11633;42.716;23.312;2022-11-11T05:12:48;31.83;;;17.73;;
22935;SDS011;11633;42.716;23.312;2022-11-11T05:15:13;31.83;;;18.80;;
22935;SDS011;11633;42.716;23.312;2022-11-11T05:17:57;32.20;;;18.98;;
22935;SDS011;11633;42.716;23.312;2022-11-11T05:20:41;25.52;;;16.38;;
22935;SDS011;11633;42.716;23.312;2022-11-11T05:23:25;30.67;;;17.95;;
22935;SDS011;11633;42.716;23.312;2022-11-11T05:26:10;28.77;;;17.27;;
22935;SDS011;11633;42.716;23.312;2022-11-11T05:28:36;25.50;;;16.33;;
22935;SDS011;11633;42.716;23.312;2022-11-11T05:31:01;28.42;;;17.52;;
22935;SDS011;11633;42.716;23.312;2022-11-11T05:33:26;32.05;;;21.30;;
22935;SDS011;11633;42.716;23.312;2022-11-11T05:35:51;32.47;;;20.42;;
22935;SDS011;11633;42.716;23.312;2022-11-11T05:38:16;35.22;;;20.05;;
22935;SDS011;11633;42.716;23.312;2022-11-11T05:40:44;29.30;;;17.25;;
22935;SDS011;11633;42.716;23.312;2022-11-11T05:43:10;32.63;;;18.35;;
22935;SDS011;11633;42.716;23.312;2022-11-11T05:45:35;35.13;;;25.80;;
22935;SDS011;11633;42.716;23.312;2022-11-11T05:48:01;41.95;;;26.27;;
22935;SDS011;11633;42.716;23.312;2022-11-11T05:50:26;27.90;;;18.58;;
22935;SDS011;11633;42.716;23.312;2022-11-11T05:52:51;25.98;;;18.17;;
22935;SDS011;11633;42.716;23.312;2022-11-11T05:55:17;24.45;;;15.05;;
22935;SDS011;11633;42.716;23.312;2022-11-11T05:57:42;34.70;;;20.52;;
22935;SDS011;11633;42.716;23.312;2022-11-11T06:00:07;25.98;;;17.13;;
22935;SDS011;11633;42.716;23.312;2022-11-11T06:02:33;22.02;;;13.35;;
22935;SDS011;11633;42.716;23.312;2022-11-11T06:04:58;26.17;;;15.93;;
22935;SDS011;11633;42.716;23.312;2022-11-11T06:07:23;25.58;;;14.75;;
22935;SDS011;11633;42.716;23.312;2022-11-11T06:09:49;22.85;;;13.73;;
22935;SDS011;11633;42.716;23.312;2022-11-11T06:12:14;24.38;;;15.30;;
22935;SDS011;11633;42.716;23.312;2022-11-11T06:14:39;25.67;;;15.35;;
22935;SDS011;11633;42.716;23.312;2022-11-11T06:17:04;23.67;;;13.00;;
22935;SDS011;11633;42.716;23.312;2022-11-11T06:19:30;26.60;;;15.50;;
22935;SDS011;11633;42.716;23.312;2022-11-11T06:21:55;21.63;;;13.52;;
22935;SDS011;11633;42.716;23.312;2022-11-11T06:24:24;20.02;;;13.15;;
22935;SDS011;11633;42.716;23.312;2022-11-11T06:26:52;24.38;;;14.20;;
22935;SDS011;11633;42.716;23.312;2022-11-11T06:29:17;23.63;;;12.75;;
22935;SDS011;11633;42.716;23.312;2022-11-11T06:31:42;21.20;;;12.85;;
22935;SDS011;11633;42.716;23.312;2022-11-11T06:34:09;22.30;;;13.18;;
22935;SDS011;11633;42.716;23.312;2022-11-11T06:36:35;19.95;;;11.70;;
22935;SDS011;11633;42.716;23.312;2022-11-11T06:39:00;20.23;;;12.48;;
22935;SDS011;11633;42.716;23.312;2022-11-11T06:41:25;21.30;;;12.85;;
22935;SDS011;11633;42.716;23.312;2022-11-11T06:43:51;20.95;;;13.57;;
22935;SDS011;11633;42.716;23.312;2022-11-11T06:46:19;21.17;;;13.02;;
22935;SDS011;11633;42.716;23.312;2022-11-11T06:48:46;20.70;;;11.82;;
22935;SDS011;11633;42.716;23.312;2022-11-11T06:51:11;20.77;;;12.95;;
22935;SDS011;11633;42.716;23.312;2022-11-11T06:53:37;23.83;;;13.10;;
22935;SDS011;11633;42.716;23.312;2022-11-11T06:56:02;21.73;;;12.88;;
22935;SDS011;11633;42.716;23.312;2022-11-11T06:58:28;25.73;;;12.40;;
22935;SDS011;11633;42.716;23.312;2022-11-11T07:00:53;22.08;;;12.27;;
22935;SDS011;11633;42.716;23.312;2022-11-11T07:03:19;23.38;;;12.57;;
22935;SDS011;11633;42.716;23.312;2022-11-11T07:05:45;22.00;;;13.35;;
22935;SDS011;11633;42.716;23.312;2022-11-11T07:08:12;22.88;;;12.90;;
22935;SDS011;11633;42.716;23.312;2022-11-11T07:10:38;23.67;;;13.07;;
22935;SDS011;11633;42.716;23.312;2022-11-11T07:13:07;22.73;;;12.75;;
22935;SDS011;11633;42.716;23.312;2022-11-11T07:15:32;23.00;;;11.85;;
22935;SDS011;11633;42.716;23.312;2022-11-11T07:17:58;21.23;;;12.25;;
22935;SDS011;11633;42.716;23.312;2022-11-11T07:20:23;28.33;;;13.18;;
22935;SDS011;11633;42.716;23.312;2022-11-11T07:22:48;22.40;;;13.05;;
22935;SDS011;11633;42.716;23.312;2022-11-11T07:25:14;24.55;;;14.15;;
22935;SDS011;11633;42.716;23.312;2022-11-11T07:27:39;21.38;;;14.30;;
22935;SDS011;11633;42.716;23.312;2022-11-11T07:30:05;26.35;;;15.00;;
22935;SDS011;11633;42.716;23.312;2022-11-11T07:32:31;22.83;;;13.02;;
22935;SDS011;11633;42.716;23.312;2022-11-11T07:34:57;22.05;;;12.98;;
22935;SDS011;11633;42.716;23.312;2022-11-11T07:37:22;20.88;;;11.25;;
22935;SDS011;11633;42.716;23.312;2022-11-11T07:39:47;21.30;;;11.40;;
22935;SDS011;11633;42.716;23.312;2022-11-11T07:42:12;20.48;;;12.13;;
22935;SDS011;11633;42.716;23.312;2022-11-11T07:44:38;20.95;;;12.43;;
22935;SDS011;11633;42.716;23.312;2022-11-11T07:47:03;24.10;;;12.70;;
22935;SDS011;11633;42.716;23.312;2022-11-11T07:49:28;20.60;;;12.13;;
22935;SDS011;11633;42.716;23.312;2022-11-11T07:51:54;19.15;;;11.15;;
22935;SDS011;11633;42.716;23.312;2022-11-11T07:54:19;19.02;;;11.20;;
22935;SDS011;11633;42.716;23.312;2022-11-11T07:56:45;18.65;;;11.55;;
22935;SDS011;11633;42.716;23.312;2022-11-11T07:59:10;20.67;;;12.23;;
22935;SDS011;11633;42.716;23.312;2022-11-11T08:01:36;19.08;;;10.77;;
22935;SDS011;11633;42.716;23.312;2022-11-11T08:04:01;19.85;;;11.50;;
22935;SDS011;11633;42.716;23.312;2022-11-11T08:06:27;20.55;;;10.77;;
22935;SDS011;11633;42.716;23.312;2022-11-11T08:08:52;22.05;;;10.57;;
22935;SDS011;11633;42.716;23.312;2022-11-11T08:11:17;17.80;;;11.50;;
22935;SDS011;11633;42.716;23.312;2022-11-11T08:14:03;18.55;;;9.57;;
22935;SDS011;11633;42.716;23.312;2022-11-11T08:16:28;18.15;;;10.98;;
22935;SDS011;11633;42.716;23.312;2022-11-11T08:18:53;19.35;;;11.85;;
22935;SDS011;11633;42.716;23.312;2022-11-11T08:21:18;20.00;;;11.98;;
22935;SDS011;11633;42.716;23.312;2022-11-11T08:23:43;17.95;;;11.00;;
22935;SDS011;11633;42.716;23.312;2022-11-11T08:26:09;20.08;;;11.20;;
22935;SDS011;11633;42.716;23.312;2022-11-11T08:28:34;17.77;;;11.77;;
22935;SDS011;11633;42.716;23.312;2022-11-11T08:31:00;18.23;;;10.50;;
22935;SDS011;11633;42.716;23.312;2022-11-11T08:33:26;16.10;;;9.98;;
22935;SDS011;11633;42.716;23.312;2022-11-11T08:35:51;15.20;;;10.23;;
22935;SDS011;11633;42.716;23.312;2022-11-11T08:38:20;16.27;;;10.43;;
22935;SDS011;11633;42.716;23.312;2022-11-11T08:40:45;16.52;;;9.90;;
22935;SDS011;11633;42.716;23.312;2022-11-11T08:43:11;14.23;;;9.02;;
22935;SDS011;11633;42.716;23.312;2022-11-11T08:45:36;12.60;;;8.73;;
22935;SDS011;11633;42.716;23.312;2022-11-11T08:48:01;15.38;;;10.00;;
22935;SDS011;11633;42.716;23.312;2022-11-11T08:50:26;14.90;;;9.48;;
22935;SDS011;11633;42.716;23.312;2022-11-11T08:52:52;14.52;;;9.07;;
22935;SDS011;11633;42.716;23.312;2022-11-11T08:55:17;13.80;;;9.13;;
22935;SDS011;11633;42.716;23.312;2022-11-11T08:57:43;14.27;;;9.15;;
22935;SDS011;11633;42.716;23.312;2022-11-11T09:00:08;18.00;;;8.43;;
22935;SDS011;11633;42.716;23.312;2022-11-11T09:02:34;12.60;;;7.93;;
22935;SDS011;11633;42.716;23.312;2022-11-11T09:04:59;12.23;;;8.00;;
22935;SDS011;11633;42.716;23.312;2022-11-11T09:07:25;11.30;;;7.78;;
22935;SDS011;11633;42.716;23.312;2022-11-11T09:09:50;11.52;;;7.18;;
22935;SDS011;11633;42.716;23.312;2022-11-11T09:12:15;12.13;;;7.20;;
22935;SDS011;11633;42.716;23.312;2022-11-11T09:14:41;8.65;;;6.10;;
22935;SDS011;11633;42.716;23.312;2022-11-11T09:17:06;9.90;;;6.35;;
22935;SDS011;11633;42.716;23.312;2022-11-11T09:19:31;9.32;;;6.70;;
22935;SDS011;11633;42.716;23.312;2022-11-11T09:21:57;8.98;;;5.88;;
22935;SDS011;11633;42.716;23.312;2022-11-11T09:24:22;8.75;;;5.78;;
22935;SDS011;11633;42.716;23.312;2022-11-11T09:26:47;7.90;;;6.30;;
22935;SDS011;11633;42.716;23.312;2022-11-11T09:29:13;7.93;;;5.63;;
22935;SDS011;11633;42.716;23.312;2022-11-11T09:31:38;6.80;;;4.82;;
22935;SDS011;11633;42.716;23.312;2022-11-11T09:34:04;8.68;;;6.13;;
22935;SDS011;11633;42.716;23.312;2022-11-11T09:36:30;5.95;;;4.75;;
22935;SDS011;11633;42.716;23.312;2022-11-11T09:38:56;8.95;;;5.15;;
22935;SDS011;11633;42.716;23.312;2022-11-11T09:41:28;7.18;;;4.95;;
22935;SDS011;11633;42.716;23.312;2022-11-11T09:43:59;9.30;;;5.07;;
22935;SDS011;11633;42.716;23.312;2022-11-11T09:46:59;7.85;;;5.25;;
22935;SDS011;11633;42.716;23.312;2022-11-11T09:54:29;8.40;;;6.00;;
22935;SDS011;11633;42.716;23.312;2022-11-11T09:56:55;10.48;;;7.05;;
22935;SDS011;11633;42.716;23.312;2022-11-11T09:59:27;8.57;;;6.00;;
22935;SDS011;11633;42.716;23.312;2022-11-11T10:01:57;11.27;;;6.32;;
22935;SDS011;11633;42.716;23.312;2022-11-11T10:06:48;8.95;;;6.38;;
22935;SDS011;11633;42.716;23.312;2022-11-11T10:11:46;7.13;;;4.90;;
22935;SDS011;11633;42.716;23.312;2022-11-11T10:14:13;8.00;;;5.30;;
22935;SDS011;11633;42.716;23.312;2022-11-11T10:19:19;8.07;;;5.68;;
22935;SDS011;11633;42.716;23.312;2022-11-11T10:21:51;7.00;;;5.10;;
22935;SDS011;11633;42.716;23.312;2022-11-11T10:24:21;8.02;;;5.50;;
22935;SDS011;11633;42.716;23.312;2022-11-11T10:26:49;7.25;;;5.25;;
22935;SDS011;11633;42.716;23.312;2022-11-11T10:29:17;9.80;;;6.10;;
22935;SDS011;11633;42.716;23.312;2022-11-11T10:31:42;8.80;;;5.07;;
22935;SDS011;11633;42.716;23.312;2022-11-11T10:34:11;7.93;;;5.45;;
22935;SDS011;11633;42.716;23.312;2022-11-11T10:36:48;9.27;;;4.57;;
22935;SDS011;11633;42.716;23.312;2022-11-11T10:39:19;7.57;;;5.55;;
22935;SDS011;11633;42.716;23.312;2022-11-11T10:41:46;5.88;;;5.22;;
22935;SDS011;11633;42.716;23.312;2022-11-11T10:44:30;10.02;;;6.10;;
22935;SDS011;11633;42.716;23.312;2022-11-11T10:49:24;8.82;;;5.10;;
22935;SDS011;11633;42.716;23.312;2022-11-11T10:51:54;9.13;;;5.57;;
22935;SDS011;11633;42.716;23.312;2022-11-11T10:54:25;6.55;;;4.30;;
22935;SDS011;11633;42.716;23.312;2022-11-11T10:57:14;6.45;;;4.40;;
22935;SDS011;11633;42.716;23.312;2022-11-11T10:59:46;8.10;;;4.85;;
22935;SDS011;11633;42.716;23.312;2022-11-11T11:02:22;8.75;;;5.82;;
22935;SDS011;11633;42.716;23.312;2022-11-11T11:04:50;9.35;;;5.68;;
22935;SDS011;11633;42.716;23.312;2022-11-11T11:07:19;7.18;;;4.70;;
22935;SDS011;11633;42.716;23.312;2022-11-11T11:12:20;6.07;;;4.80;;
22935;SDS011;11633;42.716;23.312;2022-11-11T11:14:47;6.00;;;4.65;;
22935;SDS011;11633;42.716;23.312;2022-11-11T11:17:21;7.40;;;4.60;;
22935;SDS011;11633;42.716;23.312;2022-11-11T11:19:59;7.63;;;5.38;;
22935;SDS011;11633;42.716;23.312;2022-11-11T11:25:11;6.18;;;4.35;;
22935;SDS011;11633;42.716;23.312;2022-11-11T11:27:37;8.00;;;4.88;;
22935;SDS011;11633;42.716;23.312;2022-11-11T11:30:09;7.40;;;4.25;;
22935;SDS011;11633;42.716;23.312;2022-11-11T11:32:34;7.70;;;4.25;;
22935;SDS011;11633;42.716;23.312;2022-11-11T11:35:00;6.65;;;4.03;;
22935;SDS011;11633;42.716;23.312;2022-11-11T11:37:25;5.28;;;3.53;;
22935;SDS011;11633;42.716;23.312;2022-11-11T11:40:00;5.20;;;3.22;;
22935;SDS011;11633;42.716;23.312;2022-11-11T11:44:51;7.53;;;3.50;;
22935;SDS011;11633;42.716;23.312;2022-11-11T11:50:08;5.88;;;4.10;;
22935;SDS011;11633;42.716;23.312;2022-11-11T12:00:11;5.20;;;3.67;;
22935;SDS011;11633;42.716;23.312;2022-11-11T12:05:08;6.07;;;3.85;;
22935;SDS011;11633;42.716;23.312;2022-11-11T12:12:58;4.75;;;3.22;;
22935;SDS011;11633;42.716;23.312;2022-11-11T12:18:13;6.70;;;3.92;;
22935;SDS011;11633;42.716;23.312;2022-11-11T12:20:41;5.07;;;3.58;;
22935;SDS011;11633;42.716;23.312;2022-11-11T12:30:50;7.35;;;4.72;;
22935;SDS011;11633;42.716;23.312;2022-11-11T12:36:39;4.63;;;3.40;;
22935;SDS011;11633;42.716;23.312;2022-11-11T12:38:49;6.25;;;4.03;;
22935;SDS011;11633;42.716;23.312;2022-11-11T12:44:05;4.65;;;3.58;;
22935;SDS011;11633;42.716;23.312;2022-11-11T12:54:47;4.85;;;3.63;;
22935;SDS011;11633;42.716;23.312;2022-11-11T13:02:15;4.72;;;3.70;;
22935;SDS011;11633;42.716;23.312;2022-11-11T13:09:50;6.82;;;4.28;;
22935;SDS011;11633;42.716;23.312;2022-11-11T13:12:31;5.88;;;3.78;;
22935;SDS011;11633;42.716;23.312;2022-11-11T13:17:29;4.25;;;3.33;;
22935;SDS011;11633;42.716;23.312;2022-11-11T13:19:55;5.97;;;3.40;;
22935;SDS011;11633;42.716;23.312;2022-11-11T13:24:52;4.60;;;3.42;;
22935;SDS011;11633;42.716;23.312;2022-11-11T13:27:39;6.18;;;4.07;;
22935;SDS011;11633;42.716;23.312;2022-11-11T13:32:55;9.93;;;5.07;;
22935;SDS011;11633;42.716;23.312;2022-11-11T13:35:57;7.72;;;4.00;;
22935;SDS011;11633;42.716;23.312;2022-11-11T13:38:49;5.20;;;3.30;;
22935;SDS011;11633;42.716;23.312;2022-11-11T13:41:07;8.73;;;3.83;;
22935;SDS011;11633;42.716;23.312;2022-11-11T13:43:35;5.55;;;3.53;;
22935;SDS011;11633;42.716;23.312;2022-11-11T13:46:05;5.35;;;3.67;;
22935;SDS011;11633;42.716;23.312;2022-11-11T13:48:31;6.25;;;4.07;;
22935;SDS011;11633;42.716;23.312;2022-11-11T13:51:17;7.10;;;4.28;;
22935;SDS011;11633;42.716;23.312;2022-11-11T13:53:43;6.88;;;4.28;;
22935;SDS011;11633;42.716;23.312;2022-11-11T13:56:10;4.68;;;3.72;;
22935;SDS011;11633;42.716;23.312;2022-11-11T13:58:37;7.10;;;4.45;;
22935;SDS011;11633;42.716;23.312;2022-11-11T14:01:07;7.20;;;4.40;;
22935;SDS011;11633;42.716;23.312;2022-11-11T14:03:37;7.65;;;4.93;;
22935;SDS011;11633;42.716;23.312;2022-11-11T14:08:52;6.72;;;4.57;;
22935;SDS011;11633;42.716;23.312;2022-11-11T14:13:56;8.90;;;5.18;;
22935;SDS011;11633;42.716;23.312;2022-11-11T14:21:49;7.20;;;4.47;;
22935;SDS011;11633;42.716;23.312;2022-11-11T14:24:35;5.38;;;4.45;;
22935;SDS011;11633;42.716;23.312;2022-11-11T14:27:02;9.85;;;5.05;;
22935;SDS011;11633;42.716;23.312;2022-11-11T14:29:30;9.68;;;5.80;;
22935;SDS011;11633;42.716;23.312;2022-11-11T14:37:42;6.30;;;4.40;;
22935;SDS011;11633;42.716;23.312;2022-11-11T14:40:11;8.82;;;4.90;;
22935;SDS011;11633;42.716;23.312;2022-11-11T14:45:49;8.68;;;5.15;;
22935;SDS011;11633;42.716;23.312;2022-11-11T14:47:49;8.48;;;4.82;;
22935;SDS011;11633;42.716;23.312;2022-11-11T14:52:59;8.50;;;5.45;;
22935;SDS011;11633;42.716;23.312;2022-11-11T14:55:29;8.98;;;5.22;;
22935;SDS011;11633;42.716;23.312;2022-11-11T14:58:14;8.63;;;4.95;;
22935;SDS011;11633;42.716;23.312;2022-11-11T15:05:55;11.85;;;6.20;;
22935;SDS011;11633;42.716;23.312;2022-11-11T15:08:25;7.82;;;5.13;;
22935;SDS011;11633;42.716;23.312;2022-11-11T15:32:18;8.57;;;5.93;;
22935;SDS011;11633;42.716;23.312;2022-11-11T15:37:15;10.93;;;7.47;;
22935;SDS011;11633;42.716;23.312;2022-11-11T15:39:46;10.05;;;6.95;;
22935;SDS011;11633;42.716;23.312;2022-11-11T15:42:17;11.73;;;7.47;;
22935;SDS011;11633;42.716;23.312;2022-11-11T15:44:42;11.85;;;7.45;;
22935;SDS011;11633;42.716;23.312;2022-11-11T15:47:11;12.32;;;8.10;;
22935;SDS011;11633;42.716;23.312;2022-11-11T15:49:40;11.07;;;7.05;;
22935;SDS011;11633;42.716;23.312;2022-11-11T15:54:47;11.07;;;7.40;;
22935;SDS011;11633;42.716;23.312;2022-11-11T15:57:29;11.55;;;7.22;;
22935;SDS011;11633;42.716;23.312;2022-11-11T15:59:55;11.73;;;7.18;;
22935;SDS011;11633;42.716;23.312;2022-11-11T16:02:22;11.10;;;7.55;;
22935;SDS011;11633;42.716;23.312;2022-11-11T16:05:03;9.75;;;7.63;;
22935;SDS011;11633;42.716;23.312;2022-11-11T16:07:40;10.90;;;7.38;;
22935;SDS011;11633;42.716;23.312;2022-11-11T16:12:41;12.43;;;7.78;;
22935;SDS011;11633;42.716;23.312;2022-11-11T16:15:09;12.77;;;8.23;;
22935;SDS011;11633;42.716;23.312;2022-11-11T16:17:41;13.50;;;8.82;;
22935;SDS011;11633;42.716;23.312;2022-11-11T16:20:11;13.38;;;8.43;;
22935;SDS011;11633;42.716;23.312;2022-11-11T16:22:38;12.13;;;8.27;;
22935;SDS011;11633;42.716;23.312;2022-11-11T16:25:04;14.48;;;7.63;;
22935;SDS011;11633;42.716;23.312;2022-11-11T16:27:31;12.48;;;7.93;;
22935;SDS011;11633;42.716;23.312;2022-11-11T16:30:13;14.50;;;9.45;;
22935;SDS011;11633;42.716;23.312;2022-11-11T16:32:39;16.05;;;8.40;;
22935;SDS011;11633;42.716;23.312;2022-11-11T16:35:21;14.23;;;8.85;;
22935;SDS011;11633;42.716;23.312;2022-11-11T16:37:50;14.80;;;8.93;;
22935;SDS011;11633;42.716;23.312;2022-11-11T16:42:50;16.92;;;9.25;;
22935;SDS011;11633;42.716;23.312;2022-11-11T16:45:19;11.98;;;7.70;;
22935;SDS011;11633;42.716;23.312;2022-11-11T16:47:46;16.50;;;9.02;;
22935;SDS011;11633;42.716;23.312;2022-11-11T16:50:16;13.25;;;8.43;;
22935;SDS011;11633;42.716;23.312;2022-11-11T16:52:52;14.27;;;8.85;;
22935;SDS011;11633;42.716;23.312;2022-11-11T16:57:55;14.43;;;8.65;;